Delton, Michigan
Current Conditions -  °F | °C
As of 5:53 PM on Friday 31 Oct 2014 (Local Time) from KBTL Reporting Station
Overcast Overcast  
Wind Chill: 26°   Ceiling: 3400
Heat Index: 36°   Visibility: 10mi
Dew Point: 30°   Wind: 18mph
Humidity: 79%   Direction: 10°N
Pressure: 30.1"   Gusts: 28mph
Location:  42.5°N, 85.41°W
Report Text: KBTL 312153Z 01016G24KT 10SM FEW017 BKN034 OVC041 02/M01 A3010 RMK AO2 PK WND 36032/2122 UPB08E27B41E52SNE08B14E24 SLP198 P0000 T00221011
Loading
Personal Weather Stations






























Interactive Weather Map
Tropical Storm Tracking
New forecast layout! Learn more

10-Day Weather Forecast

Advertisements
Track Severe Weather on mobile